sensor_id;sensor_type;location;lat;lon;timestamp;P1;durP1;ratioP1;P2;durP2;ratioP2
50851;SDS011;43953;45.508;-122.806;2022-09-03T00:00:26;11.57;;;10.50;;
50851;SDS011;43953;45.508;-122.806;2022-09-03T00:01:02;12.07;;;10.88;;
50851;SDS011;43953;45.508;-122.806;2022-09-03T00:02:04;12.52;;;11.23;;
50851;SDS011;43953;45.508;-122.806;2022-09-03T00:02:43;12.10;;;10.90;;
50851;SDS011;43953;45.508;-122.806;2022-09-03T00:04:49;11.07;;;10.05;;
50851;SDS011;43953;45.508;-122.806;2022-09-03T00:06:44;12.45;;;10.73;;
50851;SDS011;43953;45.508;-122.806;2022-09-03T00:07:29;13.60;;;10.93;;
50851;SDS011;43953;45.508;-122.806;2022-09-03T00:08:18;12.32;;;11.13;;
50851;SDS011;43953;45.508;-122.806;2022-09-03T00:09:12;12.05;;;10.95;;
50851;SDS011;43953;45.508;-122.806;2022-09-03T00:09:52;14.20;;;10.75;;
50851;SDS011;43953;45.508;-122.806;2022-09-03T00:10:42;12.10;;;11.00;;
50851;SDS011;43953;45.508;-122.806;2022-09-03T00:12:38;12.27;;;10.57;;
50851;SDS011;43953;45.508;-122.806;2022-09-03T00:12:43;11.45;;;10.35;;
50851;SDS011;43953;45.508;-122.806;2022-09-03T00:13:36;12.07;;;10.75;;
50851;SDS011;43953;45.508;-122.806;2022-09-03T00:14:15;14.30;;;11.55;;
50851;SDS011;43953;45.508;-122.806;2022-09-03T00:15:39;12.40;;;11.15;;
50851;SDS011;43953;45.508;-122.806;2022-09-03T00:16:12;14.63;;;10.75;;
50851;SDS011;43953;45.508;-122.806;2022-09-03T00:16:58;12.40;;;11.20;;
50851;SDS011;43953;45.508;-122.806;2022-09-03T00:17:43;13.27;;;10.63;;
50851;SDS011;43953;45.508;-122.806;2022-09-03T00:18:20;12.43;;;11.20;;
50851;SDS011;43953;45.508;-122.806;2022-09-03T00:19:00;12.02;;;10.75;;
50851;SDS011;43953;45.508;-122.806;2022-09-03T00:19:35;12.15;;;10.93;;
50851;SDS011;43953;45.508;-122.806;2022-09-03T00:20:30;14.10;;;11.48;;
50851;SDS011;43953;45.508;-122.806;2022-09-03T00:21:11;13.15;;;11.95;;
50851;SDS011;43953;45.508;-122.806;2022-09-03T00:21:52;12.02;;;10.68;;
50851;SDS011;43953;45.508;-122.806;2022-09-03T00:22:31;13.63;;;11.50;;
50851;SDS011;43953;45.508;-122.806;2022-09-03T00:23:23;12.20;;;10.80;;
50851;SDS011;43953;45.508;-122.806;2022-09-03T00:23:58;12.75;;;11.40;;
50851;SDS011;43953;45.508;-122.806;2022-09-03T00:24:34;12.15;;;10.98;;
50851;SDS011;43953;45.508;-122.806;2022-09-03T00:25:09;13.50;;;10.65;;
50851;SDS011;43953;45.508;-122.806;2022-09-03T00:26:26;15.23;;;11.65;;
50851;SDS011;43953;45.508;-122.806;2022-09-03T00:27:02;13.15;;;11.85;;
50851;SDS011;43953;45.508;-122.806;2022-09-03T00:27:41;17.25;;;11.80;;
50851;SDS011;43953;45.508;-122.806;2022-09-03T00:28:18;12.75;;;11.55;;
50851;SDS011;43953;45.508;-122.806;2022-09-03T00:29:00;13.23;;;11.82;;
50851;SDS011;43953;45.508;-122.806;2022-09-03T00:29:47;15.68;;;12.07;;
50851;SDS011;43953;45.508;-122.806;2022-09-03T00:30:23;15.80;;;11.80;;
50851;SDS011;43953;45.508;-122.806;2022-09-03T00:31:02;13.00;;;11.48;;
50851;SDS011;43953;45.508;-122.806;2022-09-03T00:31:49;12.38;;;11.15;;
50851;SDS011;43953;45.508;-122.806;2022-09-03T00:32:33;12.55;;;10.73;;
50851;SDS011;43953;45.508;-122.806;2022-09-03T00:33:22;13.52;;;12.13;;
50851;SDS011;43953;45.508;-122.806;2022-09-03T00:34:01;13.10;;;11.18;;
50851;SDS011;43953;45.508;-122.806;2022-09-03T00:34:44;13.27;;;11.30;;
50851;SDS011;43953;45.508;-122.806;2022-09-03T00:35:26;12.45;;;11.07;;
50851;SDS011;43953;45.508;-122.806;2022-09-03T00:36:36;14.68;;;12.25;;
50851;SDS011;43953;45.508;-122.806;2022-09-03T00:37:13;17.20;;;12.13;;
50851;SDS011;43953;45.508;-122.806;2022-09-03T00:37:44;13.25;;;11.38;;
50851;SDS011;43953;45.508;-122.806;2022-09-03T00:38:16;12.60;;;11.32;;
50851;SDS011;43953;45.508;-122.806;2022-09-03T00:38:48;12.88;;;11.45;;
50851;SDS011;43953;45.508;-122.806;2022-09-03T00:39:21;12.18;;;10.98;;
50851;SDS011;43953;45.508;-122.806;2022-09-03T00:39:55;12.27;;;11.10;;
50851;SDS011;43953;45.508;-122.806;2022-09-03T00:42:11;12.82;;;11.18;;
50851;SDS011;43953;45.508;-122.806;2022-09-03T00:43:57;13.50;;;11.50;;
50851;SDS011;43953;45.508;-122.806;2022-09-03T00:44:56;17.55;;;11.45;;
50851;SDS011;43953;45.508;-122.806;2022-09-03T00:45:45;12.73;;;11.50;;
50851;SDS011;43953;45.508;-122.806;2022-09-03T00:48:24;12.68;;;11.43;;
50851;SDS011;43953;45.508;-122.806;2022-09-03T00:50:03;13.18;;;11.77;;
50851;SDS011;43953;45.508;-122.806;2022-09-03T00:52:01;11.77;;;10.63;;
50851;SDS011;43953;45.508;-122.806;2022-09-03T00:54:02;12.45;;;11.20;;
50851;SDS011;43953;45.508;-122.806;2022-09-03T00:54:58;12.43;;;10.98;;
50851;SDS011;43953;45.508;-122.806;2022-09-03T00:59:35;12.13;;;10.93;;
50851;SDS011;43953;45.508;-122.806;2022-09-03T01:00:17;11.98;;;10.85;;
50851;SDS011;43953;45.508;-122.806;2022-09-03T01:00:50;12.50;;;10.68;;
50851;SDS011;43953;45.508;-122.806;2022-09-03T01:02:36;11.48;;;10.32;;
50851;SDS011;43953;45.508;-122.806;2022-09-03T01:03:37;11.32;;;9.95;;
50851;SDS011;43953;45.508;-122.806;2022-09-03T01:06:08;12.10;;;10.55;;
50851;SDS011;43953;45.508;-122.806;2022-09-03T01:08:09;11.52;;;10.32;;
50851;SDS011;43953;45.508;-122.806;2022-09-03T01:11:29;11.30;;;10.18;;
50851;SDS011;43953;45.508;-122.806;2022-09-03T01:12:36;12.40;;;11.07;;
50851;SDS011;43953;45.508;-122.806;2022-09-03T01:13:15;12.13;;;9.95;;
50851;SDS011;43953;45.508;-122.806;2022-09-03T01:15:59;10.57;;;9.57;;
50851;SDS011;43953;45.508;-122.806;2022-09-03T01:24:23;12.60;;;10.18;;
50851;SDS011;43953;45.508;-122.806;2022-09-03T01:27:10;11.85;;;10.55;;
50851;SDS011;43953;45.508;-122.806;2022-09-03T01:29:28;11.55;;;10.35;;
50851;SDS011;43953;45.508;-122.806;2022-09-03T01:30:43;10.68;;;9.55;;
50851;SDS011;43953;45.508;-122.806;2022-09-03T01:33:27;10.75;;;9.65;;
50851;SDS011;43953;45.508;-122.806;2022-09-03T01:35:57;8.80;;;7.90;;
50851;SDS011;43953;45.508;-122.806;2022-09-03T01:38:35;9.40;;;7.78;;
50851;SDS011;43953;45.508;-122.806;2022-09-03T01:39:23;9.40;;;8.27;;
50851;SDS011;43953;45.508;-122.806;2022-09-03T01:40:49;9.20;;;8.30;;
50851;SDS011;43953;45.508;-122.806;2022-09-03T01:46:32;14.30;;;8.40;;
50851;SDS011;43953;45.508;-122.806;2022-09-03T01:49:37;9.23;;;7.60;;
50851;SDS011;43953;45.508;-122.806;2022-09-03T01:50:20;8.80;;;8.00;;
50851;SDS011;43953;45.508;-122.806;2022-09-03T01:51:15;8.73;;;7.68;;
50851;SDS011;43953;45.508;-122.806;2022-09-03T01:51:55;9.07;;;8.20;;
50851;SDS011;43953;45.508;-122.806;2022-09-03T01:53:40;9.05;;;8.20;;
50851;SDS011;43953;45.508;-122.806;2022-09-03T01:54:29;9.10;;;7.90;;
50851;SDS011;43953;45.508;-122.806;2022-09-03T01:56:12;11.13;;;8.18;;
50851;SDS011;43953;45.508;-122.806;2022-09-03T01:57:57;9.15;;;8.23;;
50851;SDS011;43953;45.508;-122.806;2022-09-03T01:59:22;8.90;;;7.93;;
50851;SDS011;43953;45.508;-122.806;2022-09-03T01:59:59;9.98;;;8.00;;
50851;SDS011;43953;45.508;-122.806;2022-09-03T02:00:34;9.77;;;7.90;;
50851;SDS011;43953;45.508;-122.806;2022-09-03T02:02:12;9.88;;;8.43;;
50851;SDS011;43953;45.508;-122.806;2022-09-03T02:02:51;8.43;;;7.55;;
50851;SDS011;43953;45.508;-122.806;2022-09-03T02:03:23;8.77;;;7.95;;
50851;SDS011;43953;45.508;-122.806;2022-09-03T02:05:06;8.73;;;7.80;;
50851;SDS011;43953;45.508;-122.806;2022-09-03T02:05:44;9.13;;;7.45;;
50851;SDS011;43953;45.508;-122.806;2022-09-03T02:06:17;8.68;;;7.78;;
50851;SDS011;43953;45.508;-122.806;2022-09-03T02:06:51;8.13;;;7.40;;
50851;SDS011;43953;45.508;-122.806;2022-09-03T02:07:24;7.93;;;7.22;;
50851;SDS011;43953;45.508;-122.806;2022-09-03T02:08:07;10.27;;;8.52;;
50851;SDS011;43953;45.508;-122.806;2022-09-03T02:08:40;8.88;;;7.97;;
50851;SDS011;43953;45.508;-122.806;2022-09-03T02:09:11;8.13;;;7.32;;
50851;SDS011;43953;45.508;-122.806;2022-09-03T02:09:43;12.38;;;7.28;;
50851;SDS011;43953;45.508;-122.806;2022-09-03T02:10:17;8.15;;;7.35;;
50851;SDS011;43953;45.508;-122.806;2022-09-03T02:10:54;8.65;;;7.75;;
50851;SDS011;43953;45.508;-122.806;2022-09-03T02:11:31;8.93;;;6.72;;
50851;SDS011;43953;45.508;-122.806;2022-09-03T02:12:07;7.60;;;6.90;;
50851;SDS011;43953;45.508;-122.806;2022-09-03T02:12:48;10.98;;;6.80;;
50851;SDS011;43953;45.508;-122.806;2022-09-03T02:13:58;8.05;;;7.07;;
50851;SDS011;43953;45.508;-122.806;2022-09-03T02:14:30;7.57;;;6.82;;
50851;SDS011;43953;45.508;-122.806;2022-09-03T02:15:06;7.65;;;6.65;;
50851;SDS011;43953;45.508;-122.806;2022-09-03T02:15:44;7.93;;;7.13;;
50851;SDS011;43953;45.508;-122.806;2022-09-03T02:16:19;8.27;;;6.93;;
50851;SDS011;43953;45.508;-122.806;2022-09-03T02:16:54;7.93;;;6.88;;
50851;SDS011;43953;45.508;-122.806;2022-09-03T02:17:30;7.43;;;6.75;;
50851;SDS011;43953;45.508;-122.806;2022-09-03T02:18:04;7.82;;;7.03;;
50851;SDS011;43953;45.508;-122.806;2022-09-03T02:18:45;7.85;;;6.45;;
50851;SDS011;43953;45.508;-122.806;2022-09-03T02:19:20;9.65;;;6.35;;
50851;SDS011;43953;45.508;-122.806;2022-09-03T02:19:54;7.53;;;6.82;;
50851;SDS011;43953;45.508;-122.806;2022-09-03T02:20:26;7.72;;;7.03;;
50851;SDS011;43953;45.508;-122.806;2022-09-03T02:20:59;6.88;;;6.18;;
50851;SDS011;43953;45.508;-122.806;2022-09-03T02:21:34;7.45;;;6.75;;
50851;SDS011;43953;45.508;-122.806;2022-09-03T02:22:08;7.50;;;6.60;;
50851;SDS011;43953;45.508;-122.806;2022-09-03T02:22:40;7.32;;;6.30;;
50851;SDS011;43953;45.508;-122.806;2022-09-03T02:23:13;7.28;;;6.47;;
50851;SDS011;43953;45.508;-122.806;2022-09-03T02:23:45;8.85;;;6.80;;
50851;SDS011;43953;45.508;-122.806;2022-09-03T02:24:18;7.80;;;7.10;;
50851;SDS011;43953;45.508;-122.806;2022-09-03T02:24:50;7.10;;;6.40;;
50851;SDS011;43953;45.508;-122.806;2022-09-03T02:25:23;7.13;;;6.45;;
50851;SDS011;43953;45.508;-122.806;2022-09-03T02:26:03;7.40;;;6.53;;
50851;SDS011;43953;45.508;-122.806;2022-09-03T02:26:36;6.95;;;6.25;;
50851;SDS011;43953;45.508;-122.806;2022-09-03T02:27:08;7.20;;;6.50;;
50851;SDS011;43953;45.508;-122.806;2022-09-03T02:27:40;7.22;;;6.53;;
50851;SDS011;43953;45.508;-122.806;2022-09-03T02:28:12;7.43;;;6.13;;
50851;SDS011;43953;45.508;-122.806;2022-09-03T02:28:45;9.43;;;6.47;;
50851;SDS011;43953;45.508;-122.806;2022-09-03T02:29:18;7.38;;;6.65;;
50851;SDS011;43953;45.508;-122.806;2022-09-03T02:29:50;7.53;;;6.53;;
50851;SDS011;43953;45.508;-122.806;2022-09-03T02:30:22;8.65;;;6.55;;
50851;SDS011;43953;45.508;-122.806;2022-09-03T02:30:54;7.68;;;6.50;;
50851;SDS011;43953;45.508;-122.806;2022-09-03T02:31:27;7.10;;;6.40;;
50851;SDS011;43953;45.508;-122.806;2022-09-03T02:31:58;8.50;;;6.70;;
50851;SDS011;43953;45.508;-122.806;2022-09-03T02:32:30;6.80;;;6.15;;
50851;SDS011;43953;45.508;-122.806;2022-09-03T02:33:02;6.75;;;6.10;;
50851;SDS011;43953;45.508;-122.806;2022-09-03T02:33:38;7.57;;;6.88;;
50851;SDS011;43953;45.508;-122.806;2022-09-03T02:34:11;7.05;;;6.35;;
50851;SDS011;43953;45.508;-122.806;2022-09-03T02:34:43;6.95;;;6.35;;
50851;SDS011;43953;45.508;-122.806;2022-09-03T02:35:15;11.15;;;6.90;;
50851;SDS011;43953;45.508;-122.806;2022-09-03T02:35:47;7.10;;;6.40;;
50851;SDS011;43953;45.508;-122.806;2022-09-03T02:36:20;8.52;;;6.80;;
50851;SDS011;43953;45.508;-122.806;2022-09-03T02:36:57;8.77;;;6.60;;
50851;SDS011;43953;45.508;-122.806;2022-09-03T02:37:29;8.05;;;6.72;;
50851;SDS011;43953;45.508;-122.806;2022-09-03T02:38:10;7.05;;;6.35;;
50851;SDS011;43953;45.508;-122.806;2022-09-03T02:38:44;7.53;;;6.35;;
50851;SDS011;43953;45.508;-122.806;2022-09-03T02:39:16;7.35;;;6.00;;
50851;SDS011;43953;45.508;-122.806;2022-09-03T02:39:48;7.43;;;6.45;;
50851;SDS011;43953;45.508;-122.806;2022-09-03T02:40:21;7.07;;;6.38;;
50851;SDS011;43953;45.508;-122.806;2022-09-03T02:40:53;7.20;;;6.30;;
50851;SDS011;43953;45.508;-122.806;2022-09-03T02:41:25;6.45;;;5.85;;
50851;SDS011;43953;45.508;-122.806;2022-09-03T02:41:57;6.65;;;5.95;;
50851;SDS011;43953;45.508;-122.806;2022-09-03T02:42:29;7.00;;;5.70;;
50851;SDS011;43953;45.508;-122.806;2022-09-03T02:43:01;6.18;;;5.57;;
50851;SDS011;43953;45.508;-122.806;2022-09-03T02:43:38;6.93;;;6.28;;
50851;SDS011;43953;45.508;-122.806;2022-09-03T02:44:29;7.05;;;6.07;;
50851;SDS011;43953;45.508;-122.806;2022-09-03T02:45:12;6.20;;;5.60;;
50851;SDS011;43953;45.508;-122.806;2022-09-03T02:46:16;6.40;;;5.90;;
50851;SDS011;43953;45.508;-122.806;2022-09-03T02:46:58;7.20;;;5.85;;
50851;SDS011;43953;45.508;-122.806;2022-09-03T02:47:32;6.80;;;6.05;;
50851;SDS011;43953;45.508;-122.806;2022-09-03T02:48:07;6.90;;;5.82;;
50851;SDS011;43953;45.508;-122.806;2022-09-03T02:48:41;6.88;;;6.20;;
50851;SDS011;43953;45.508;-122.806;2022-09-03T02:49:13;6.10;;;5.50;;
50851;SDS011;43953;45.508;-122.806;2022-09-03T02:49:47;6.65;;;5.70;;
50851;SDS011;43953;45.508;-122.806;2022-09-03T02:50:19;6.63;;;5.60;;
50851;SDS011;43953;45.508;-122.806;2022-09-03T02:50:51;6.43;;;5.65;;
50851;SDS011;43953;45.508;-122.806;2022-09-03T02:51:23;8.35;;;5.82;;
50851;SDS011;43953;45.508;-122.806;2022-09-03T02:51:58;5.85;;;5.35;;
50851;SDS011;43953;45.508;-122.806;2022-09-03T02:52:31;7.05;;;5.60;;
50851;SDS011;43953;45.508;-122.806;2022-09-03T02:53:03;6.35;;;5.43;;
50851;SDS011;43953;45.508;-122.806;2022-09-03T02:53:35;7.10;;;5.07;;
50851;SDS011;43953;45.508;-122.806;2022-09-03T02:54:07;5.82;;;5.22;;
50851;SDS011;43953;45.508;-122.806;2022-09-03T02:54:40;6.57;;;5.88;;
50851;SDS011;43953;45.508;-122.806;2022-09-03T02:55:14;6.25;;;5.40;;
50851;SDS011;43953;45.508;-122.806;2022-09-03T02:55:46;5.78;;;5.18;;
50851;SDS011;43953;45.508;-122.806;2022-09-03T02:56:18;6.57;;;5.07;;
50851;SDS011;43953;45.508;-122.806;2022-09-03T02:56:50;5.60;;;5.10;;
50851;SDS011;43953;45.508;-122.806;2022-09-03T02:57:22;5.80;;;5.30;;
50851;SDS011;43953;45.508;-122.806;2022-09-03T02:57:54;5.50;;;5.00;;
50851;SDS011;43953;45.508;-122.806;2022-09-03T02:58:27;5.63;;;5.13;;
50851;SDS011;43953;45.508;-122.806;2022-09-03T02:59:02;6.43;;;5.15;;
50851;SDS011;43953;45.508;-122.806;2022-09-03T02:59:35;5.78;;;5.28;;
50851;SDS011;43953;45.508;-122.806;2022-09-03T03:00:09;5.80;;;5.20;;
50851;SDS011;43953;45.508;-122.806;2022-09-03T03:00:42;6.68;;;5.30;;
50851;SDS011;43953;45.508;-122.806;2022-09-03T03:01:14;5.50;;;5.00;;
50851;SDS011;43953;45.508;-122.806;2022-09-03T03:01:46;5.68;;;5.05;;
50851;SDS011;43953;45.508;-122.806;2022-09-03T03:02:18;5.82;;;5.30;;
50851;SDS011;43953;45.508;-122.806;2022-09-03T03:02:49;5.35;;;4.85;;
50851;SDS011;43953;45.508;-122.806;2022-09-03T03:03:22;5.43;;;4.93;;
50851;SDS011;43953;45.508;-122.806;2022-09-03T03:03:54;5.70;;;5.10;;
50851;SDS011;43953;45.508;-122.806;2022-09-03T03:04:25;5.53;;;5.00;;
50851;SDS011;43953;45.508;-122.806;2022-09-03T03:04:57;8.55;;;5.28;;
50851;SDS011;43953;45.508;-122.806;2022-09-03T03:05:34;6.30;;;5.07;;
50851;SDS011;43953;45.508;-122.806;2022-09-03T03:06:15;5.22;;;4.72;;
50851;SDS011;43953;45.508;-122.806;2022-09-03T03:06:50;5.85;;;5.15;;
50851;SDS011;43953;45.508;-122.806;2022-09-03T03:07:21;6.05;;;4.70;;
50851;SDS011;43953;45.508;-122.806;2022-09-03T03:07:53;7.57;;;5.07;;
50851;SDS011;43953;45.508;-122.806;2022-09-03T03:08:26;5.97;;;5.05;;
50851;SDS011;43953;45.508;-122.806;2022-09-03T03:08:58;6.28;;;5.22;;
50851;SDS011;43953;45.508;-122.806;2022-09-03T03:09:35;5.90;;;5.22;;
50851;SDS011;43953;45.508;-122.806;2022-09-03T03:10:07;5.40;;;4.90;;
50851;SDS011;43953;45.508;-122.806;2022-09-03T03:10:40;6.70;;;5.13;;
50851;SDS011;43953;45.508;-122.806;2022-09-03T03:11:14;5.95;;;4.80;;
50851;SDS011;43953;45.508;-122.806;2022-09-03T03:11:47;5.55;;;5.05;;
50851;SDS011;43953;45.508;-122.806;2022-09-03T03:12:21;5.10;;;4.38;;
50851;SDS011;43953;45.508;-122.806;2022-09-03T03:12:52;6.75;;;4.93;;
50851;SDS011;43953;45.508;-122.806;2022-09-03T03:13:25;5.88;;;4.75;;
50851;SDS011;43953;45.508;-122.806;2022-09-03T03:13:58;6.25;;;4.57;;
50851;SDS011;43953;45.508;-122.806;2022-09-03T03:14:29;6.15;;;5.20;;
50851;SDS011;43953;45.508;-122.806;2022-09-03T03:15:01;5.68;;;4.82;;
50851;SDS011;43953;45.508;-122.806;2022-09-03T03:15:33;5.13;;;4.63;;
50851;SDS011;43953;45.508;-122.806;2022-09-03T03:16:05;5.53;;;5.03;;
50851;SDS011;43953;45.508;-122.806;2022-09-03T03:16:37;5.05;;;4.55;;
50851;SDS011;43953;45.508;-122.806;2022-09-03T03:17:08;6.55;;;4.88;;
50851;SDS011;43953;45.508;-122.806;2022-09-03T03:17:40;5.10;;;4.60;;
50851;SDS011;43953;45.508;-122.806;2022-09-03T03:18:12;4.70;;;4.28;;
50851;SDS011;43953;45.508;-122.806;2022-09-03T03:18:44;5.78;;;4.70;;
50851;SDS011;43953;45.508;-122.806;2022-09-03T03:19:18;5.38;;;4.75;;
50851;SDS011;43953;45.508;-122.806;2022-09-03T03:19:50;7.03;;;4.72;;
50851;SDS011;43953;45.508;-122.806;2022-09-03T03:20:22;5.88;;;4.97;;
50851;SDS011;43953;45.508;-122.806;2022-09-03T03:20:54;5.78;;;4.93;;
50851;SDS011;43953;45.508;-122.806;2022-09-03T03:21:26;5.88;;;4.43;;
50851;SDS011;43953;45.508;-122.806;2022-09-03T03:21:58;5.03;;;4.32;;
50851;SDS011;43953;45.508;-122.806;2022-09-03T03:22:30;4.80;;;4.40;;
50851;SDS011;43953;45.508;-122.806;2022-09-03T03:23:02;5.47;;;4.32;;
50851;SDS011;43953;45.508;-122.806;2022-09-03T03:23:35;4.53;;;3.85;;
50851;SDS011;43953;45.508;-122.806;2022-09-03T03:24:08;4.78;;;4.15;;
50851;SDS011;43953;45.508;-122.806;2022-09-03T03:24:39;5.03;;;4.50;;
50851;SDS011;43953;45.508;-122.806;2022-09-03T03:25:12;6.82;;;4.50;;
50851;SDS011;43953;45.508;-122.806;2022-09-03T03:25:43;6.13;;;4.60;;
50851;SDS011;43953;45.508;-122.806;2022-09-03T03:26:16;7.20;;;4.70;;
50851;SDS011;43953;45.508;-122.806;2022-09-03T03:26:49;5.80;;;4.32;;
50851;SDS011;43953;45.508;-122.806;2022-09-03T03:27:21;5.57;;;4.70;;
50851;SDS011;43953;45.508;-122.806;2022-09-03T03:27:55;4.63;;;4.03;;
50851;SDS011;43953;45.508;-122.806;2022-09-03T03:28:27;4.72;;;4.28;;
50851;SDS011;43953;45.508;-122.806;2022-09-03T03:28:59;4.75;;;4.25;;
50851;SDS011;43953;45.508;-122.806;2022-09-03T03:29:34;5.28;;;4.18;;
50851;SDS011;43953;45.508;-122.806;2022-09-03T03:30:06;5.32;;;4.00;;
50851;SDS011;43953;45.508;-122.806;2022-09-03T03:30:39;6.88;;;4.65;;
50851;SDS011;43953;45.508;-122.806;2022-09-03T03:31:13;5.97;;;4.35;;
50851;SDS011;43953;45.508;-122.806;2022-09-03T03:31:47;7.05;;;5.18;;
50851;SDS011;43953;45.508;-122.806;2022-09-03T03:32:19;7.72;;;5.25;;
50851;SDS011;43953;45.508;-122.806;2022-09-03T03:32:51;10.40;;;5.43;;
50851;SDS011;43953;45.508;-122.806;2022-09-03T03:33:23;7.07;;;5.35;;
50851;SDS011;43953;45.508;-122.806;2022-09-03T03:33:59;5.43;;;4.93;;
50851;SDS011;43953;45.508;-122.806;2022-09-03T03:34:33;8.43;;;4.55;;
50851;SDS011;43953;45.508;-122.806;2022-09-03T03:35:05;7.90;;;4.78;;
50851;SDS011;43953;45.508;-122.806;2022-09-03T03:35:37;8.30;;;5.20;;
50851;SDS011;43953;45.508;-122.806;2022-09-03T03:36:12;9.02;;;5.13;;
50851;SDS011;43953;45.508;-122.806;2022-09-03T03:36:45;9.20;;;5.20;;
50851;SDS011;43953;45.508;-122.806;2022-09-03T03:37:16;8.98;;;5.85;;
50851;SDS011;43953;45.508;-122.806;2022-09-03T03:37:48;7.60;;;5.65;;
50851;SDS011;43953;45.508;-122.806;2022-09-03T03:38:20;10.05;;;6.13;;
50851;SDS011;43953;45.508;-122.806;2022-09-03T03:38:52;9.52;;;6.30;;
50851;SDS011;43953;45.508;-122.806;2022-09-03T03:39:25;7.85;;;6.40;;
50851;SDS011;43953;45.508;-122.806;2022-09-03T03:39:57;10.88;;;6.18;;
50851;SDS011;43953;45.508;-122.806;2022-09-03T03:40:29;9.52;;;6.80;;
50851;SDS011;43953;45.508;-122.806;2022-09-03T03:41:10;10.35;;;7.13;;
50851;SDS011;43953;45.508;-122.806;2022-09-03T03:41:47;11.13;;;7.50;;
50851;SDS011;43953;45.508;-122.806;2022-09-03T03:42:19;11.98;;;7.68;;
50851;SDS011;43953;45.508;-122.806;2022-09-03T03:42:51;9.68;;;7.55;;
50851;SDS011;43953;45.508;-122.806;2022-09-03T03:43:23;10.88;;;6.85;;
50851;SDS011;43953;45.508;-122.806;2022-09-03T03:43:55;9.77;;;6.30;;
50851;SDS011;43953;45.508;-122.806;2022-09-03T03:44:29;10.57;;;6.55;;
50851;SDS011;43953;45.508;-122.806;2022-09-03T03:45:01;8.15;;;6.63;;
50851;SDS011;43953;45.508;-122.806;2022-09-03T03:45:32;13.32;;;6.60;;
50851;SDS011;43953;45.508;-122.806;2022-09-03T03:46:04;7.70;;;6.10;;
50851;SDS011;43953;45.508;-122.806;2022-09-03T03:46:37;8.32;;;5.85;;
50851;SDS011;43953;45.508;-122.806;2022-09-03T03:47:11;8.68;;;5.80;;
50851;SDS011;43953;45.508;-122.806;2022-09-03T03:47:42;9.32;;;5.45;;
50851;SDS011;43953;45.508;-122.806;2022-09-03T03:48:14;6.95;;;5.03;;
50851;SDS011;43953;45.508;-122.806;2022-09-03T03:48:49;9.07;;;5.85;;
50851;SDS011;43953;45.508;-122.806;2022-09-03T03:49:22;11.57;;;7.70;;
50851;SDS011;43953;45.508;-122.806;2022-09-03T03:49:53;7.93;;;6.85;;
50851;SDS011;43953;45.508;-122.806;2022-09-03T03:50:25;10.75;;;6.10;;
50851;SDS011;43953;45.508;-122.806;2022-09-03T03:51:04;9.25;;;6.18;;
50851;SDS011;43953;45.508;-122.806;2022-09-03T03:51:38;9.75;;;6.35;;
50851;SDS011;43953;45.508;-122.806;2022-09-03T03:52:10;9.15;;;6.70;;
50851;SDS011;43953;45.508;-122.806;2022-09-03T03:52:42;10.75;;;7.43;;
50851;SDS011;43953;45.508;-122.806;2022-09-03T03:53:13;10.25;;;8.13;;
50851;SDS011;43953;45.508;-122.806;2022-09-03T03:53:45;12.57;;;9.00;;
50851;SDS011;43953;45.508;-122.806;2022-09-03T03:54:17;11.07;;;8.50;;
50851;SDS011;43953;45.508;-122.806;2022-09-03T03:54:49;11.55;;;7.97;;
50851;SDS011;43953;45.508;-122.806;2022-09-03T03:55:21;11.95;;;10.27;;
50851;SDS011;43953;45.508;-122.806;2022-09-03T03:55:53;14.73;;;11.45;;
50851;SDS011;43953;45.508;-122.806;2022-09-03T03:56:29;15.82;;;12.93;;
50851;SDS011;43953;45.508;-122.806;2022-09-03T03:57:01;16.63;;;13.18;;
50851;SDS011;43953;45.508;-122.806;2022-09-03T03:57:32;13.23;;;11.93;;
50851;SDS011;43953;45.508;-122.806;2022-09-03T03:58:04;16.20;;;11.93;;
50851;SDS011;43953;45.508;-122.806;2022-09-03T03:58:36;15.95;;;12.52;;
50851;SDS011;43953;45.508;-122.806;2022-09-03T03:59:12;15.32;;;12.82;;
50851;SDS011;43953;45.508;-122.806;2022-09-03T03:59:44;16.33;;;12.80;;
50851;SDS011;43953;45.508;-122.806;2022-09-03T04:00:16;15.77;;;12.20;;
50851;SDS011;43953;45.508;-122.806;2022-09-03T04:00:47;16.35;;;13.85;;
50851;SDS011;43953;45.508;-122.806;2022-09-03T04:01:21;16.17;;;13.38;;
50851;SDS011;43953;45.508;-122.806;2022-09-03T04:01:54;17.10;;;12.50;;
50851;SDS011;43953;45.508;-122.806;2022-09-03T04:02:26;18.48;;;12.77;;
50851;SDS011;43953;45.508;-122.806;2022-09-03T04:02:58;14.07;;;9.80;;
50851;SDS011;43953;45.508;-122.806;2022-09-03T04:03:30;14.93;;;9.88;;
50851;SDS011;43953;45.508;-122.806;2022-09-03T04:04:02;12.95;;;9.20;;
50851;SDS011;43953;45.508;-122.806;2022-09-03T04:04:35;17.92;;;10.90;;
50851;SDS011;43953;45.508;-122.806;2022-09-03T04:05:07;14.52;;;10.70;;
50851;SDS011;43953;45.508;-122.806;2022-09-03T04:05:39;15.32;;;10.80;;
50851;SDS011;43953;45.508;-122.806;2022-09-03T04:06:11;14.50;;;11.45;;
50851;SDS011;43953;45.508;-122.806;2022-09-03T04:06:45;19.52;;;14.55;;
50851;SDS011;43953;45.508;-122.806;2022-09-03T04:07:17;15.45;;;13.35;;
50851;SDS011;43953;45.508;-122.806;2022-09-03T04:07:48;16.85;;;12.70;;
50851;SDS011;43953;45.508;-122.806;2022-09-03T04:08:20;19.40;;;13.60;;
50851;SDS011;43953;45.508;-122.806;2022-09-03T04:08:52;15.60;;;12.63;;
50851;SDS011;43953;45.508;-122.806;2022-09-03T04:09:24;19.77;;;13.40;;
50851;SDS011;43953;45.508;-122.806;2022-09-03T04:09:56;14.80;;;11.93;;
50851;SDS011;43953;45.508;-122.806;2022-09-03T04:10:27;18.98;;;11.38;;
50851;SDS011;43953;45.508;-122.806;2022-09-03T04:11:00;15.50;;;11.38;;
50851;SDS011;43953;45.508;-122.806;2022-09-03T04:11:32;18.02;;;11.75;;
50851;SDS011;43953;45.508;-122.806;2022-09-03T04:12:04;17.60;;;10.70;;
50851;SDS011;43953;45.508;-122.806;2022-09-03T04:12:38;12.15;;;9.90;;
50851;SDS011;43953;45.508;-122.806;2022-09-03T04:13:10;13.27;;;9.82;;
50851;SDS011;43953;45.508;-122.806;2022-09-03T04:13:42;16.00;;;9.55;;
50851;SDS011;43953;45.508;-122.806;2022-09-03T04:14:15;14.20;;;7.97;;
50851;SDS011;43953;45.508;-122.806;2022-09-03T04:14:47;11.88;;;8.07;;
50851;SDS011;43953;45.508;-122.806;2022-09-03T04:15:19;14.77;;;8.75;;
50851;SDS011;43953;45.508;-122.806;2022-09-03T04:15:51;11.65;;;8.10;;
50851;SDS011;43953;45.508;-122.806;2022-09-03T04:16:41;14.38;;;7.80;;
50851;SDS011;43953;45.508;-122.806;2022-09-03T04:17:12;10.85;;;7.28;;
50851;SDS011;43953;45.508;-122.806;2022-09-03T04:17:44;9.13;;;6.53;;
50851;SDS011;43953;45.508;-122.806;2022-09-03T04:18:16;9.05;;;6.93;;
50851;SDS011;43953;45.508;-122.806;2022-09-03T04:18:48;13.57;;;6.95;;
50851;SDS011;43953;45.508;-122.806;2022-09-03T04:19:21;11.95;;;7.00;;
50851;SDS011;43953;45.508;-122.806;2022-09-03T04:19:53;15.70;;;8.73;;
50851;SDS011;43953;45.508;-122.806;2022-09-03T04:20:26;11.25;;;7.65;;
50851;SDS011;43953;45.508;-122.806;2022-09-03T04:21:00;10.63;;;7.88;;
50851;SDS011;43953;45.508;-122.806;2022-09-03T04:21:34;15.00;;;9.68;;
50851;SDS011;43953;45.508;-122.806;2022-09-03T04:22:06;14.90;;;9.65;;
50851;SDS011;43953;45.508;-122.806;2022-09-03T04:22:38;15.55;;;10.10;;
50851;SDS011;43953;45.508;-122.806;2022-09-03T04:23:09;11.60;;;9.40;;